This is the latest recevied weather packets stored in our database for station/object KD5HIA. If no packets are shown the sender has not sent any weather packets the latest 10 day(s).
| Time | Temp. | Humidity | Pressure | Rain* | Wind** | Luminosity | Snow |
|---|---|---|---|---|---|---|---|
| 1788577515 | 25.56° C | 73% | 1013.8 hPa | 0 mm | - | 0 W/m² | - |
| 1788576915 | 25° C | 74% | 1013.5 hPa | 0 mm | - | 0 W/m² | - |
| 1788576315 | 25.56° C | 74% | 1013.3 hPa | 0 mm | - | 0 W/m² | - |
| 1788575715 | 25.56° C | 73% | 1012.9 hPa | 0 mm | - | 0 W/m² | - |
| 1788575115 | 26.11° C | 72% | 1012.7 hPa | 0 mm | - | 0 W/m² | - |
| 1788574515 | 26.11° C | 71% | 1012.5 hPa | 0 mm | - | 0 W/m² | - |
| 1788573915 | 26.11° C | 70% | 1012.4 hPa | 0 mm | - | 0 W/m² | - |
| 1788573315 | 26.67° C | 70% | 1012.3 hPa | 0 mm | - | 0 W/m² | - |
| 1788572719 | 26.67° C | 69% | 1012.3 hPa | 0 mm | - | 0 W/m² | - |
| 1788572118 | 26.67° C | 68% | 1012.3 hPa | 0 mm | - | 0 W/m² | - |
| 1788571519 | 26.67° C | 67% | 1012.3 hPa | 0 mm | - | 0 W/m² | - |
| 1788570915 | 27.22° C | 65% | 1012.4 hPa | 0 mm | - | 0 W/m² | - |
| 1788570315 | 27.78° C | 65% | 1012.5 hPa | 0 mm | - | 0 W/m² | - |
| 1788569715 | 27.78° C | 64% | 1012.6 hPa | 0 mm | - | 3 W/m² | - |
| 1788569115 | 27.78° C | 65% | 1012.6 hPa | 0 mm | - | 11 W/m² | - |
| 1788568515 | 28.33° C | 64% | 1012.7 hPa | 0 mm | - | 18 W/m² | - |
| 1788567915 | 28.33° C | 63% | 1012.7 hPa | 0 mm | - | 23 W/m² | - |
| 1788567315 | 28.33° C | 64% | 1012.6 hPa | 0 mm | - | 26 W/m² | - |
| 1788566715 | 28.33° C | 63% | 1012.5 hPa | 0 mm | - | 34 W/m² | - |
| 1788566115 | 28.33° C | 63% | 1012.4 hPa | 0 mm | - | 40 W/m² | - |
| 1788565515 | 28.33° C | 61% | 1012.6 hPa | 0 mm | - | 57 W/m² | - |
| 1788564915 | 28.89° C | 57% | 1012.7 hPa | 0 mm | - | 111 W/m² | - |
| 1788564315 | 29.44° C | 60% | 1012.7 hPa | 0 mm | - | 70 W/m² | - |
| 1788563716 | 29.44° C | 59% | 1012.4 hPa | 0 mm | - | 190 W/m² | - |
| 1788563115 | 29.44° C | 61% | 1012.1 hPa | 0 mm | - | 166 W/m² | - |
* Rain latest hour (hover to see other rain measurements)
** Current wind speed in m/s (hover to see current wind gust speed)